sensor_id;sensor_type;location;lat;lon;timestamp;P1;durP1;ratioP1;P2;durP2;ratioP2
15915;SDS011;8057;47.830;-3.870;2023-05-10T00:03:50;15.43;;;4.40;;
15915;SDS011;8057;47.830;-3.870;2023-05-10T00:08:00;15.93;;;3.73;;
15915;SDS011;8057;47.830;-3.870;2023-05-10T00:12:10;13.73;;;4.47;;
15915;SDS011;8057;47.830;-3.870;2023-05-10T00:16:20;20.10;;;4.23;;
15915;SDS011;8057;47.830;-3.870;2023-05-10T00:20:31;17.23;;;4.73;;
15915;SDS011;8057;47.830;-3.870;2023-05-10T00:24:41;19.77;;;5.23;;
15915;SDS011;8057;47.830;-3.870;2023-05-10T00:28:51;16.37;;;4.37;;
15915;SDS011;8057;47.830;-3.870;2023-05-10T00:33:01;21.93;;;4.33;;
15915;SDS011;8057;47.830;-3.870;2023-05-10T00:37:12;13.53;;;4.03;;
15915;SDS011;8057;47.830;-3.870;2023-05-10T00:41:22;20.33;;;4.07;;
15915;SDS011;8057;47.830;-3.870;2023-05-10T00:45:32;21.07;;;4.30;;
15915;SDS011;8057;47.830;-3.870;2023-05-10T00:49:43;17.43;;;3.90;;
15915;SDS011;8057;47.830;-3.870;2023-05-10T00:53:55;18.70;;;4.53;;
15915;SDS011;8057;47.830;-3.870;2023-05-10T00:58:05;18.47;;;4.90;;
15915;SDS011;8057;47.830;-3.870;2023-05-10T01:02:15;14.27;;;4.17;;
15915;SDS011;8057;47.830;-3.870;2023-05-10T01:06:25;16.67;;;4.67;;
15915;SDS011;8057;47.830;-3.870;2023-05-10T01:10:36;15.73;;;3.80;;
15915;SDS011;8057;47.830;-3.870;2023-05-10T01:14:47;17.27;;;3.90;;
15915;SDS011;8057;47.830;-3.870;2023-05-10T01:18:57;19.77;;;4.33;;
15915;SDS011;8057;47.830;-3.870;2023-05-10T01:23:10;12.90;;;3.57;;
15915;SDS011;8057;47.830;-3.870;2023-05-10T01:27:55;19.77;;;3.93;;
15915;SDS011;8057;47.830;-3.870;2023-05-10T01:32:33;13.97;;;3.87;;
15915;SDS011;8057;47.830;-3.870;2023-05-10T01:36:48;18.30;;;3.73;;
15915;SDS011;8057;47.830;-3.870;2023-05-10T01:41:06;16.57;;;4.23;;
15915;SDS011;8057;47.830;-3.870;2023-05-10T01:45:24;18.60;;;3.67;;
15915;SDS011;8057;47.830;-3.870;2023-05-10T01:49:41;15.07;;;4.07;;
15915;SDS011;8057;47.830;-3.870;2023-05-10T01:53:58;14.93;;;3.67;;
15915;SDS011;8057;47.830;-3.870;2023-05-10T01:58:10;14.07;;;3.73;;
15915;SDS011;8057;47.830;-3.870;2023-05-10T02:02:23;14.30;;;3.90;;
15915;SDS011;8057;47.830;-3.870;2023-05-10T02:06:35;14.57;;;3.33;;
15915;SDS011;8057;47.830;-3.870;2023-05-10T02:10:47;17.37;;;4.50;;
15915;SDS011;8057;47.830;-3.870;2023-05-10T02:14:59;20.60;;;4.63;;
15915;SDS011;8057;47.830;-3.870;2023-05-10T02:19:12;15.73;;;4.17;;
15915;SDS011;8057;47.830;-3.870;2023-05-10T02:23:25;17.37;;;3.87;;
15915;SDS011;8057;47.830;-3.870;2023-05-10T02:27:35;19.93;;;4.23;;
15915;SDS011;8057;47.830;-3.870;2023-05-10T02:31:45;16.77;;;4.27;;
15915;SDS011;8057;47.830;-3.870;2023-05-10T02:35:55;15.50;;;3.80;;
15915;SDS011;8057;47.830;-3.870;2023-05-10T02:40:07;14.33;;;4.03;;
15915;SDS011;8057;47.830;-3.870;2023-05-10T02:44:18;16.90;;;3.97;;
15915;SDS011;8057;47.830;-3.870;2023-05-10T02:48:28;15.10;;;3.70;;
15915;SDS011;8057;47.830;-3.870;2023-05-10T02:52:39;15.67;;;4.13;;
15915;SDS011;8057;47.830;-3.870;2023-05-10T02:56:53;15.60;;;3.77;;
15915;SDS011;8057;47.830;-3.870;2023-05-10T03:01:05;12.93;;;3.83;;
15915;SDS011;8057;47.830;-3.870;2023-05-10T03:05:14;13.90;;;3.60;;
15915;SDS011;8057;47.830;-3.870;2023-05-10T03:09:23;11.57;;;3.10;;
15915;SDS011;8057;47.830;-3.870;2023-05-10T03:13:36;11.87;;;2.80;;
15915;SDS011;8057;47.830;-3.870;2023-05-10T03:17:54;11.17;;;3.27;;
15915;SDS011;8057;47.830;-3.870;2023-05-10T03:22:10;9.47;;;3.50;;
15915;SDS011;8057;47.830;-3.870;2023-05-10T03:26:27;11.60;;;3.23;;
15915;SDS011;8057;47.830;-3.870;2023-05-10T03:30:38;11.40;;;3.10;;
15915;SDS011;8057;47.830;-3.870;2023-05-10T03:34:48;14.70;;;3.90;;
15915;SDS011;8057;47.830;-3.870;2023-05-10T03:38:58;15.43;;;3.37;;
15915;SDS011;8057;47.830;-3.870;2023-05-10T03:43:07;15.23;;;3.30;;
15915;SDS011;8057;47.830;-3.870;2023-05-10T03:47:17;10.83;;;2.93;;
15915;SDS011;8057;47.830;-3.870;2023-05-10T03:51:26;11.47;;;3.57;;
15915;SDS011;8057;47.830;-3.870;2023-05-10T03:55:37;13.97;;;3.53;;
15915;SDS011;8057;47.830;-3.870;2023-05-10T03:59:46;17.93;;;3.70;;
15915;SDS011;8057;47.830;-3.870;2023-05-10T04:03:57;17.87;;;4.33;;
15915;SDS011;8057;47.830;-3.870;2023-05-10T04:08:06;11.23;;;3.80;;
15915;SDS011;8057;47.830;-3.870;2023-05-10T04:12:15;17.17;;;4.17;;
15915;SDS011;8057;47.830;-3.870;2023-05-10T04:16:24;14.27;;;3.47;;
15915;SDS011;8057;47.830;-3.870;2023-05-10T04:20:35;18.60;;;4.63;;
15915;SDS011;8057;47.830;-3.870;2023-05-10T04:24:44;12.03;;;3.07;;
15915;SDS011;8057;47.830;-3.870;2023-05-10T04:28:54;11.10;;;3.73;;
15915;SDS011;8057;47.830;-3.870;2023-05-10T04:33:03;14.83;;;4.63;;
15915;SDS011;8057;47.830;-3.870;2023-05-10T04:37:14;19.17;;;4.50;;
15915;SDS011;8057;47.830;-3.870;2023-05-10T04:41:23;15.67;;;3.73;;
15915;SDS011;8057;47.830;-3.870;2023-05-10T04:45:33;18.47;;;4.90;;
15915;SDS011;8057;47.830;-3.870;2023-05-10T04:49:42;15.23;;;4.07;;
15915;SDS011;8057;47.830;-3.870;2023-05-10T04:53:52;16.87;;;5.00;;
15915;SDS011;8057;47.830;-3.870;2023-05-10T04:58:11;16.60;;;4.20;;
15915;SDS011;8057;47.830;-3.870;2023-05-10T05:02:20;16.43;;;4.27;;
15915;SDS011;8057;47.830;-3.870;2023-05-10T05:06:30;18.00;;;4.10;;
15915;SDS011;8057;47.830;-3.870;2023-05-10T05:10:41;20.23;;;4.50;;
15915;SDS011;8057;47.830;-3.870;2023-05-10T05:14:50;15.53;;;3.87;;
15915;SDS011;8057;47.830;-3.870;2023-05-10T05:18:59;20.63;;;4.33;;
15915;SDS011;8057;47.830;-3.870;2023-05-10T05:23:09;19.63;;;4.30;;
15915;SDS011;8057;47.830;-3.870;2023-05-10T05:27:19;18.03;;;4.63;;
15915;SDS011;8057;47.830;-3.870;2023-05-10T05:31:30;20.20;;;4.23;;
15915;SDS011;8057;47.830;-3.870;2023-05-10T05:35:39;17.20;;;4.23;;
15915;SDS011;8057;47.830;-3.870;2023-05-10T05:39:49;20.70;;;4.63;;
15915;SDS011;8057;47.830;-3.870;2023-05-10T05:44:00;18.90;;;4.10;;
15915;SDS011;8057;47.830;-3.870;2023-05-10T05:48:09;21.57;;;4.90;;
15915;SDS011;8057;47.830;-3.870;2023-05-10T05:52:18;19.00;;;4.60;;
15915;SDS011;8057;47.830;-3.870;2023-05-10T05:56:27;15.67;;;4.23;;
15915;SDS011;8057;47.830;-3.870;2023-05-10T06:00:38;16.20;;;3.90;;
15915;SDS011;8057;47.830;-3.870;2023-05-10T06:04:48;19.63;;;3.90;;
15915;SDS011;8057;47.830;-3.870;2023-05-10T06:08:58;16.60;;;4.27;;
15915;SDS011;8057;47.830;-3.870;2023-05-10T06:13:07;11.90;;;3.27;;
15915;SDS011;8057;47.830;-3.870;2023-05-10T06:17:19;16.63;;;4.40;;
15915;SDS011;8057;47.830;-3.870;2023-05-10T06:21:28;13.33;;;3.97;;
15915;SDS011;8057;47.830;-3.870;2023-05-10T06:25:37;14.47;;;3.50;;
15915;SDS011;8057;47.830;-3.870;2023-05-10T06:29:47;16.27;;;6.83;;
15915;SDS011;8057;47.830;-3.870;2023-05-10T06:34:03;16.20;;;4.20;;
15915;SDS011;8057;47.830;-3.870;2023-05-10T06:38:14;14.23;;;3.90;;
15915;SDS011;8057;47.830;-3.870;2023-05-10T06:42:23;15.27;;;4.07;;
15915;SDS011;8057;47.830;-3.870;2023-05-10T06:46:34;16.20;;;4.60;;
15915;SDS011;8057;47.830;-3.870;2023-05-10T07:09:39;12.23;;;3.83;;
15915;SDS011;8057;47.830;-3.870;2023-05-10T07:46:34;8.97;;;2.43;;
15915;SDS011;8057;47.830;-3.870;2023-05-10T08:26:06;7.03;;;2.17;;
15915;SDS011;8057;47.830;-3.870;2023-05-10T08:30:16;8.03;;;2.60;;
15915;SDS011;8057;47.830;-3.870;2023-05-10T08:34:25;12.07;;;2.47;;
15915;SDS011;8057;47.830;-3.870;2023-05-10T08:43:01;7.03;;;2.03;;
15915;SDS011;8057;47.830;-3.870;2023-05-10T08:47:16;6.50;;;2.10;;
15915;SDS011;8057;47.830;-3.870;2023-05-10T08:51:27;8.90;;;2.47;;
15915;SDS011;8057;47.830;-3.870;2023-05-10T08:55:43;7.90;;;2.50;;
15915;SDS011;8057;47.830;-3.870;2023-05-10T09:38:20;8.20;;;3.03;;
15915;SDS011;8057;47.830;-3.870;2023-05-10T10:11:06;10.23;;;3.00;;
15915;SDS011;8057;47.830;-3.870;2023-05-10T10:15:19;9.17;;;2.90;;
15915;SDS011;8057;47.830;-3.870;2023-05-10T10:19:29;10.20;;;3.10;;
15915;SDS011;8057;47.830;-3.870;2023-05-10T11:25:04;8.83;;;2.70;;
15915;SDS011;8057;47.830;-3.870;2023-05-10T11:29:35;9.27;;;2.00;;
15915;SDS011;8057;47.830;-3.870;2023-05-10T11:34:22;9.00;;;2.50;;
15915;SDS011;8057;47.830;-3.870;2023-05-10T11:38:35;10.27;;;2.10;;
15915;SDS011;8057;47.830;-3.870;2023-05-10T11:42:59;8.53;;;2.17;;
